M I D A S
Marine Information and Data Acquisition System
Tripno 2088 of the Zeeleeuw from 2011-02-15 05:59:19 to 2011-02-15 14:27:17
Back to CruiseResearch ActivitiesStationsMapUnderway DataData graphs

EquipmentUnitsComment
TimeDGPSUTC
LatitudeDGPSDM.mWGS84
LongitudeDGPSDM.mWGS84
HeadingGyrodeg 
SOGDGPSknotsSpeed over ground
COGDGPSdegCourse over ground
DepthEcho soundermeters200 kHz
Missing or incorrect values are displayed as -999
Navigation data collected by the RV Zeeleeuw from 2011-02-15 05:54:16 to 2011-02-15 15:52:14
                                                                                    Next 1000 lines
Time Latitude Longitude Heading SOG COG Depth
2011-02-15 05:54:27 51°13.662 2°55.959 125.7 -999 236 -999
2011-02-15 05:54:32 51°13.662 2°55.959 125.7 -999 60 -999
2011-02-15 05:54:37 51°13.662 2°55.959 125.7 -999 57 -999
2011-02-15 05:54:42 51°13.662 2°55.959 125.7 0.1 238 7.9
2011-02-15 05:54:47 51°13.662 2°55.959 125.7 0.1 224 7.9
2011-02-15 05:54:51 51°13.662 2°55.959 125.7 -999 230 5.9
2011-02-15 05:54:56 51°13.662 2°55.959 125.7 -999 48 7.9
2011-02-15 05:55:01 51°13.662 2°55.959 125.7 -999 158 -999
2011-02-15 05:55:07 51°13.662 2°55.959 125.7 -999 207 -999
2011-02-15 05:55:12 51°13.662 2°55.959 125.7 0.1 43 -999
2011-02-15 05:55:17 51°13.662 2°55.959 125.7 -999 152 -999
2011-02-15 05:55:22 51°13.662 2°55.959 125.7 -999 221 8
2011-02-15 05:55:27 51°13.662 2°55.959 125.7 -999 14 7.9
2011-02-15 05:55:31 51°13.662 2°55.959 125.7 0.1 58 7.9
2011-02-15 05:55:37 51°13.662 2°55.959 125.7 -999 241 7.9
2011-02-15 05:55:42 51°13.662 2°55.959 125.7 -999 45 7.9
2011-02-15 05:55:47 51°13.662 2°55.959 125.7 0.1 231 7.9
2011-02-15 05:55:52 51°13.662 2°55.959 125.7 -999 239 7.9
2011-02-15 05:55:56 51°13.662 2°55.959 125.7 -999 74 7.9
2011-02-15 05:56:01 51°13.662 2°55.959 125.7 -999 96 5.9
2011-02-15 05:56:06 51°13.662 2°55.959 125.7 0.1 63 7.9
2011-02-15 05:56:11 51°13.662 2°55.959 125.7 0.1 48 7.9
2011-02-15 05:56:16 51°13.662 2°55.959 125.7 0.1 61 7.9
2011-02-15 05:56:21 51°13.662 2°55.959 125.7 -999 130 7.9
2011-02-15 05:56:26 51°13.662 2°55.958 125.7 0.1 239 7.9
2011-02-15 05:56:31 51°13.662 2°55.958 125.7 0.1 231 7.9
2011-02-15 05:56:36 51°13.662 2°55.958 125.7 -999 244 7.9
2011-02-15 05:56:40 51°13.662 2°55.959 125.7 -999 56 7.9
2011-02-15 05:56:45 51°13.662 2°55.959 125.7 -999 89 -999
2011-02-15 05:56:50 51°13.662 2°55.959 125.7 -999 149 7.9
2011-02-15 05:56:55 51°13.662 2°55.959 125.7 -999 130 7.9
2011-02-15 05:57:01 51°13.662 2°55.959 125.8 -999 139 -999
2011-02-15 05:57:06 51°13.662 2°55.959 126.1 0.1 131 7.9
2011-02-15 05:57:11 51°13.661 2°55.959 126.4 0.1 164 8
2011-02-15 05:57:16 51°13.661 2°55.959 126.8 0.1 171 7.7
2011-02-15 05:57:21 51°13.661 2°55.959 127.5 0.1 117 7.8
2011-02-15 05:57:25 51°13.661 2°55.959 128.2 0.1 50 7.8
2011-02-15 05:57:31 51°13.661 2°55.959 129 -999 262 -999
2011-02-15 05:57:36 51°13.661 2°55.959 129.2 0.1 227 -999
2011-02-15 05:57:41 51°13.661 2°55.959 129.1 -999 224 -999
2011-02-15 05:57:45 51°13.661 2°55.959 128.8 -999 125 7.8
2011-02-15 05:57:50 51°13.661 2°55.959 128.7 -999 212 7.8
2011-02-15 05:57:56 51°13.661 2°55.959 128.7 -999 255 7.7
2011-02-15 05:58:01 51°13.662 2°55.96 128.8 0.1 76 7.8
2011-02-15 05:58:05 51°13.661 2°55.959 128.9 0.1 217 7.7
2011-02-15 05:58:10 51°13.662 2°55.96 128.9 -999 50 7.7
2011-02-15 05:58:15 51°13.662 2°55.96 128.9 0.1 42 7.8
2011-02-15 05:58:20 51°13.662 2°55.96 128.8 -999 46 8
2011-02-15 05:58:26 51°13.662 2°55.96 128.7 0.1 55 -999
2011-02-15 05:58:32 51°13.662 2°55.96 128.6 -999 65 -999
2011-02-15 05:58:37 51°13.662 2°55.96 128.6 -999 63 -999
2011-02-15 05:58:42 51°13.662 2°55.96 128.6 0.1 254 -999
2011-02-15 05:58:47 51°13.662 2°55.96 128.6 -999 66 7.8
2011-02-15 05:58:52 51°13.662 2°55.96 128.6 -999 86 7.8
2011-02-15 05:58:57 51°13.662 2°55.96 128.7 -999 233 8
2011-02-15 05:59:02 51°13.662 2°55.96 128.9 0.1 256 -999
2011-02-15 05:59:07 51°13.662 2°55.96 129.1 -999 222 -999
2011-02-15 05:59:12 51°13.662 2°55.96 129.4 -999 55 -999
2011-02-15 05:59:17 51°13.662 2°55.96 129.5 -999 51 7.8
2011-02-15 05:59:22 51°13.662 2°55.96 129.5 0.1 70 7.8
2011-02-15 05:59:27 51°13.662 2°55.96 129.3 0.1 93 -999
2011-02-15 05:59:33 51°13.662 2°55.96 128.7 -999 85 7.8
2011-02-15 05:59:36 51°13.662 2°55.96 128 0.1 74 7.8
2011-02-15 05:59:41 51°13.662 2°55.96 127.3 0.1 71 8
2011-02-15 05:59:47 51°13.662 2°55.96 126.2 0.1 94 -999
2011-02-15 05:59:52 51°13.662 2°55.96 125.1 -999 84 -999
2011-02-15 05:59:57 51°13.662 2°55.96 124.5 0.1 200 -999
2011-02-15 06:00:02 51°13.662 2°55.96 124 0.1 217 7.8
2011-02-15 06:00:07 51°13.661 2°55.96 123.5 0.1 210 7.8
2011-02-15 06:00:12 51°13.662 2°55.96 122.7 -999 90 -999
2011-02-15 06:00:17 51°13.661 2°55.96 122 0.1 93 -999
2011-02-15 06:00:22 51°13.661 2°55.96 121.3 0.1 122 -999
2011-02-15 06:00:27 51°13.661 2°55.96 120.6 0.1 169 8
2011-02-15 06:00:32 51°13.661 2°55.96 120.2 -999 186 8.1
2011-02-15 06:00:36 51°13.661 2°55.96 119.3 0.1 184 7.8
2011-02-15 06:00:41 51°13.661 2°55.96 118.5 0.1 213 7.8
2011-02-15 06:00:46 51°13.661 2°55.96 117.7 0.1 215 7.8
2011-02-15 06:00:52 51°13.661 2°55.96 116.9 0.1 179 7.8
2011-02-15 06:00:57 51°13.661 2°55.96 116.2 0.1 104 7.8
2011-02-15 06:01:02 51°13.66 2°55.96 115.4 0.1 201 8
2011-02-15 06:01:07 51°13.66 2°55.96 114.6 0.1 206 7.8
2011-02-15 06:01:12 51°13.66 2°55.96 113.8 0.1 195 -999
2011-02-15 06:01:17 51°13.66 2°55.959 112.8 0.1 245 7.8
2011-02-15 06:01:22 51°13.66 2°55.959 111.9 0.1 300 -999
2011-02-15 06:01:27 51°13.661 2°55.959 111.5 0.5 297 8.6
2011-02-15 06:01:32 51°13.661 2°55.957 111.2 0.8 298 7.9
2011-02-15 06:01:37 51°13.662 2°55.953 111.1 1.4 291 7.9
2011-02-15 06:01:41 51°13.663 2°55.95 111.1 1.9 295 8
2011-02-15 06:01:46 51°13.664 2°55.945 111.4 2.4 290 8
2011-02-15 06:01:52 51°13.666 2°55.938 111.4 2.8 293 -999
2011-02-15 06:01:57 51°13.668 2°55.932 111.1 3.2 290 -999
2011-02-15 06:02:02 51°13.669 2°55.924 110.4 3.6 291 -999
2011-02-15 06:02:07 51°13.671 2°55.917 109.6 3.7 290 -999
2011-02-15 06:02:12 51°13.673 2°55.908 109 3.9 289 -999
2011-02-15 06:02:17 51°13.675 2°55.9 108.2 4.1 288 -999
2011-02-15 06:02:22 51°13.676 2°55.891 107.9 4.2 287 -999
2011-02-15 06:02:27 51°13.678 2°55.882 107.8 4.3 286 -999
2011-02-15 06:02:33 51°13.68 2°55.871 107.5 4.3 287 -999
2011-02-15 06:02:37 51°13.682 2°55.864 106.8 4.2 287 -999
2011-02-15 06:02:41 51°13.683 2°55.857 106.2 4.2 286 -999
2011-02-15 06:02:47 51°13.685 2°55.846 105.4 4.1 286 -999
2011-02-15 06:02:52 51°13.686 2°55.837 104.6 4.1 285 -999
2011-02-15 06:02:57 51°13.687 2°55.828 103.7 4.1 283 -999
2011-02-15 06:03:02 51°13.689 2°55.821 102.6 3.8 284 -999
2011-02-15 06:03:07 51°13.69 2°55.812 101.7 3.8 283 -999
2011-02-15 06:03:12 51°13.691 2°55.804 100.4 3.8 281 -999
2011-02-15 06:03:17 51°13.692 2°55.796 98.8 3.7 280 -999
2011-02-15 06:03:22 51°13.693 2°55.789 97.3 3.5 281 -999
2011-02-15 06:03:27 51°13.694 2°55.781 95.7 3.4 278 -999
2011-02-15 06:03:32 51°13.694 2°55.774 94.3 3.3 277 -999
2011-02-15 06:03:37 51°13.695 2°55.767 92.1 3.2 276 -999
2011-02-15 06:03:42 51°13.695 2°55.761 90.2 3 275 -999
2011-02-15 06:03:47 51°13.695 2°55.754 88.4 2.9 273 -999
2011-02-15 06:03:52 51°13.695 2°55.748 86.7 2.6 272 12.5
2011-02-15 06:03:57 51°13.696 2°55.744 85.7 1.9 271 11.9
2011-02-15 06:04:02 51°13.696 2°55.74 83.9 1.5 274 11.9
2011-02-15 06:04:06 51°13.696 2°55.739 81.4 0.9 275 11.8
2011-02-15 06:04:12 51°13.696 2°55.738 77.8 0.6 291 12
2011-02-15 06:04:17 51°13.697 2°55.737 73.5 0.4 325 12
2011-02-15 06:04:22 51°13.698 2°55.737 68.9 0.4 2 11.9
2011-02-15 06:04:27 51°13.698 2°55.738 63.9 0.5 21 11.8
2011-02-15 06:04:31 51°13.699 2°55.738 59.1 0.6 22 11.8
2011-02-15 06:04:36 51°13.7 2°55.739 54.5 0.7 25 11.8
2011-02-15 06:04:41 51°13.701 2°55.74 49.8 0.9 27 11.7
2011-02-15 06:04:46 51°13.702 2°55.74 45.3 1 25 11.8
2011-02-15 06:04:51 51°13.704 2°55.742 41.1 1.1 23 12.2
2011-02-15 06:04:55 51°13.705 2°55.743 36.8 1.3 23 12.1
2011-02-15 06:05:00 51°13.707 2°55.743 32.5 1.3 20 12.2
2011-02-15 06:05:05 51°13.709 2°55.744 28.2 1.4 12 12.1
2011-02-15 06:05:10 51°13.711 2°55.745 23.8 1.5 12 12.1
2011-02-15 06:05:15 51°13.713 2°55.745 19.6 1.5 7 12.1
2011-02-15 06:05:19 51°13.715 2°55.746 15.6 1.7 5 12.2
2011-02-15 06:05:24 51°13.717 2°55.746 11.7 2 1 12.1
2011-02-15 06:05:29 51°13.72 2°55.746 7.1 2.2 357 12.1
2011-02-15 06:05:34 51°13.723 2°55.745 1.9 2.4 352 12.1
2011-02-15 06:05:39 51°13.727 2°55.744 356.2 2.6 349 11.7
2011-02-15 06:05:44 51°13.731 2°55.742 350.1 2.8 341 11.2
2011-02-15 06:05:49 51°13.735 2°55.739 342.4 3 335 -999
2011-02-15 06:05:55 51°13.739 2°55.734 335.8 3.3 328 -999
2011-02-15 06:06:00 51°13.743 2°55.73 329 3.6 326 -999
2011-02-15 06:06:06 51°13.749 2°55.724 325.9 4 321 -999
2011-02-15 06:06:11 51°13.753 2°55.718 324 4.4 321 10
2011-02-15 06:06:17 51°13.759 2°55.71 323.1 4.7 321 9.8
2011-02-15 06:06:22 51°13.765 2°55.704 322.7 5.1 323 -999
2011-02-15 06:06:27 51°13.771 2°55.697 323.1 5.4 323 10.2
2011-02-15 06:06:31 51°13.776 2°55.69 324.1 5.9 324 10.5
2011-02-15 06:06:37 51°13.784 2°55.68 325.2 6.4 324 10.3
2011-02-15 06:06:42 51°13.792 2°55.671 326.4 6.9 326 10.1
2011-02-15 06:06:47 51°13.801 2°55.663 327.8 7.2 327 10.1
2011-02-15 06:06:52 51°13.81 2°55.654 329.6 7.7 329 10.1
2011-02-15 06:06:56 51°13.818 2°55.648 330.8 8.1 331 10.4
2011-02-15 06:07:02 51°13.83 2°55.637 331.9 8.3 331 10.3
2011-02-15 06:07:07 51°13.84 2°55.629 333.5 8.6 334 10.5
2011-02-15 06:07:12 51°13.851 2°55.62 335.1 8.8 334 10.7
2011-02-15 06:07:17 51°13.863 2°55.611 336 9 333 10.8
2011-02-15 06:07:21 51°13.872 2°55.604 336.2 9.2 335 10.7
2011-02-15 06:07:26 51°13.884 2°55.595 336.9 9.3 335 10.6
2011-02-15 06:07:31 51°13.896 2°55.586 337.1 9.5 335 10.5
2011-02-15 06:07:37 51°13.91 2°55.576 337.4 9.6 336 10.8
2011-02-15 06:07:41 51°13.92 2°55.569 338.1 9.7 336 10.8
2011-02-15 06:07:46 51°13.932 2°55.56 338.1 9.7 335 10.9
2011-02-15 06:07:51 51°13.945 2°55.551 337.8 9.7 336 10.8
2011-02-15 06:07:56 51°13.957 2°55.542 338.5 9.8 336 11.1
2011-02-15 06:08:01 51°13.969 2°55.533 338.7 9.8 336 10.9
2011-02-15 06:08:06 51°13.982 2°55.524 338.7 9.9 336 10.9
2011-02-15 06:08:11 51°13.995 2°55.516 338.5 9.9 337 10.8
2011-02-15 06:08:16 51°14.007 2°55.507 338.8 9.9 337 10.8
2011-02-15 06:08:21 51°14.019 2°55.498 339 9.9 336 10.7
2011-02-15 06:08:26 51°14.032 2°55.49 338.9 9.9 336 10.6
2011-02-15 06:08:31 51°14.045 2°55.481 339 9.9 336 10.4
2011-02-15 06:08:35 51°14.055 2°55.474 339.1 9.9 336 10.6
2011-02-15 06:08:40 51°14.068 2°55.465 338.6 9.9 335 10.6
2011-02-15 06:08:45 51°14.081 2°55.456 338.4 10 335 10.6
2011-02-15 06:08:50 51°14.093 2°55.446 338.4 10.1 334 10.6
2011-02-15 06:08:55 51°14.106 2°55.437 337.8 10.1 334 10.6
2011-02-15 06:09:00 51°14.119 2°55.428 337.7 10.2 335 10.7
2011-02-15 06:09:05 51°14.132 2°55.418 337.6 10.2 334 10.7
2011-02-15 06:09:10 51°14.145 2°55.408 336.8 10.2 334 10.6
2011-02-15 06:09:14 51°14.155 2°55.401 336.8 10.3 334 10.6
2011-02-15 06:09:19 51°14.168 2°55.39 336.8 10.3 333 10.6
2011-02-15 06:09:24 51°14.181 2°55.38 336 10.4 333 10.6
2011-02-15 06:09:29 51°14.193 2°55.368 334.9 10.4 332 10.6
2011-02-15 06:09:34 51°14.206 2°55.357 334.5 10.5 331 10.6
2011-02-15 06:09:39 51°14.219 2°55.346 334.1 10.5 331 10.5
2011-02-15 06:09:44 51°14.231 2°55.334 333.2 10.5 329 10.5
2011-02-15 06:09:48 51°14.241 2°55.325 332.1 10.5 329 10.5
2011-02-15 06:09:53 51°14.253 2°55.312 331.7 10.5 328 10.6
2011-02-15 06:09:58 51°14.266 2°55.3 330.6 10.6 327 10.5
2011-02-15 06:10:03 51°14.278 2°55.287 329.3 10.5 327 10.6
2011-02-15 06:10:08 51°14.29 2°55.274 329.1 10.7 326 10.6
2011-02-15 06:10:13 51°14.302 2°55.261 328.9 10.8 326 10.5
2011-02-15 06:10:18 51°14.315 2°55.248 327.9 10.8 325 10.7
2011-02-15 06:10:23 51°14.328 2°55.235 327.6 10.9 327 10.5
2011-02-15 06:10:28 51°14.34 2°55.22 327.6 10.9 325 10.6
2011-02-15 06:10:33 51°14.352 2°55.207 327.7 11 327 10.3
2011-02-15 06:10:38 51°14.365 2°55.193 327.6 11 326 10.3
2011-02-15 06:10:43 51°14.378 2°55.18 327.4 11.1 327 10.2
2011-02-15 06:10:48 51°14.391 2°55.165 327.8 11.2 326 10.3
2011-02-15 06:10:53 51°14.404 2°55.151 327.8 11.3 325 10.4
2011-02-15 06:10:58 51°14.417 2°55.137 328.2 11.3 326 10.4
2011-02-15 06:11:02 51°14.427 2°55.125 328.2 11.4 324 10.5
2011-02-15 06:11:08 51°14.443 2°55.108 327.5 11.6 325 10.6
2011-02-15 06:11:13 51°14.456 2°55.093 326.7 11.6 323 10.7
2011-02-15 06:11:18 51°14.469 2°55.077 326.4 11.6 324 10.9
2011-02-15 06:11:23 51°14.482 2°55.062 326.6 11.8 324 10.8
2011-02-15 06:11:28 51°14.495 2°55.047 326.3 11.8 324 10.9
2011-02-15 06:11:33 51°14.509 2°55.032 327.6 12 326 11
2011-02-15 06:11:38 51°14.523 2°55.016 328.7 12.1 325 11.3
2011-02-15 06:11:43 51°14.537 2°55.001 328.2 12.2 324 11.5
2011-02-15 06:11:48 51°14.55 2°54.984 327.4 12.4 324 11.6
2011-02-15 06:11:53 51°14.565 2°54.968 327.8 12.6 324 11.7
2011-02-15 06:11:58 51°14.579 2°54.95 327.6 12.7 323 11.6
2011-02-15 06:12:02 51°14.59 2°54.938 328.3 12.8 325 11.6
2011-02-15 06:12:08 51°14.608 2°54.918 328.8 12.9 324 11.6
2011-02-15 06:12:13 51°14.622 2°54.901 328.5 12.9 325 11.5
2011-02-15 06:12:18 51°14.637 2°54.884 327.9 13 323 11.4
2011-02-15 06:12:23 51°14.652 2°54.868 328.5 13.1 325 11.5
2011-02-15 06:12:28 51°14.667 2°54.851 328.9 13 324 11.5
2011-02-15 06:12:33 51°14.681 2°54.834 328.7 13.1 325 11.6
2011-02-15 06:12:38 51°14.696 2°54.817 328.2 13.1 324 11.6
2011-02-15 06:12:42 51°14.708 2°54.804 329.1 13.1 326 11.8
2011-02-15 06:12:48 51°14.726 2°54.784 329.5 13.2 325 11.7
2011-02-15 06:12:53 51°14.741 2°54.768 329.1 13.1 325 11.6
2011-02-15 06:12:58 51°14.756 2°54.75 328.2 13.1 324 11.8
2011-02-15 06:13:02 51°14.767 2°54.736 327 13.1 323 11.8
2011-02-15 06:13:08 51°14.785 2°54.716 326.9 13.1 325 11.9
2011-02-15 06:13:13 51°14.8 2°54.699 327.9 13.1 325 11.8
2011-02-15 06:13:18 51°14.815 2°54.682 328.5 13.1 325 11.5
2011-02-15 06:13:23 51°14.829 2°54.665 327.5 13.1 323 11.7
2011-02-15 06:13:28 51°14.844 2°54.648 326.7 13.1 324 11.8
2011-02-15 06:13:33 51°14.858 2°54.63 327 13.2 323 12.1
2011-02-15 06:13:38 51°14.873 2°54.614 327.3 13.1 325 11.7
2011-02-15 06:13:42 51°14.885 2°54.599 326.7 13.1 321 12
2011-02-15 06:13:48 51°14.902 2°54.578 326 13.1 322 11.9
2011-02-15 06:13:53 51°14.916 2°54.559 325.2 13.1 320 11.3
2011-02-15 06:13:58 51°14.93 2°54.541 324.5 13.1 321 11.1
2011-02-15 06:14:03 51°14.944 2°54.523 323.8 13 320 11.1
2011-02-15 06:14:08 51°14.958 2°54.504 323.5 13 320 11.2
2011-02-15 06:14:13 51°14.971 2°54.485 323.3 13 320 11.1
2011-02-15 06:14:18 51°14.985 2°54.467 323.1 13 320 11.3
2011-02-15 06:14:22 51°14.997 2°54.452 323.1 13 320 11.2
2011-02-15 06:14:28 51°15.013 2°54.43 323.4 13 321 11.1
2011-02-15 06:14:33 51°15.027 2°54.411 324.1 13 321 11.2
2011-02-15 06:14:38 51°15.041 2°54.394 325.2 12.9 322 11.2
2011-02-15 06:14:43 51°15.056 2°54.377 326.2 13 323 11.3
2011-02-15 06:14:48 51°15.07 2°54.359 326.4 13 322 11.1
2011-02-15 06:14:53 51°15.084 2°54.342 326.3 13.1 322 11.3
2011-02-15 06:14:58 51°15.099 2°54.324 325.7 13.1 322 11.4
2011-02-15 06:15:02 51°15.11 2°54.309 324.9 13 321 11.3
2011-02-15 06:15:08 51°15.126 2°54.287 324.4 13.1 320 11.2
2011-02-15 06:15:13 51°15.14 2°54.268 323.9 13.1 319 11.1
2011-02-15 06:15:18 51°15.154 2°54.249 323.3 13.1 319 11.4
2011-02-15 06:15:22 51°15.165 2°54.234 322.8 13.1 319 11.3
2011-02-15 06:15:28 51°15.181 2°54.211 322.3 13.1 319 11.2
2011-02-15 06:15:33 51°15.195 2°54.192 322.7 13.1 320 11.4
2011-02-15 06:15:38 51°15.209 2°54.173 323.4 13 320 11.3
2011-02-15 06:15:42 51°15.22 2°54.159 324.3 13.1 321 11
2011-02-15 06:15:48 51°15.237 2°54.137 325.1 13 321 11.3
2011-02-15 06:15:53 51°15.251 2°54.119 325.6 13.1 322 11.4
2011-02-15 06:15:58 51°15.265 2°54.102 326.2 13 323 11.4
2011-02-15 06:16:03 51°15.279 2°54.084 326.7 13 323 11.4
2011-02-15 06:16:08 51°15.294 2°54.066 327 13 322 11.4
2011-02-15 06:16:13 51°15.308 2°54.049 326.9 13 322 11.4
2011-02-15 06:16:18 51°15.322 2°54.03 326.2 13.1 321 11.4
2011-02-15 06:16:22 51°15.333 2°54.015 325.2 13.1 320 11.5
2011-02-15 06:16:28 51°15.35 2°53.994 324.5 13 319 11.6
2011-02-15 06:16:33 51°15.364 2°53.975 323.6 13.1 319 11.6
2011-02-15 06:16:38 51°15.377 2°53.955 323.1 13 319 11.5
2011-02-15 06:16:43 51°15.391 2°53.936 323.3 13 319 11.6
2011-02-15 06:16:48 51°15.405 2°53.918 324 13.1 320 11.4
2011-02-15 06:16:53 51°15.419 2°53.9 324.4 13 321 11.5
2011-02-15 06:16:58 51°15.433 2°53.882 325.3 13 322 11.7
2011-02-15 06:17:02 51°15.444 2°53.867 325.8 13.1 321 11.6
2011-02-15 06:17:08 51°15.461 2°53.845 326 13.1 322 11.7
2011-02-15 06:17:13 51°15.476 2°53.828 326 13 321 11.5
2011-02-15 06:17:18 51°15.49 2°53.809 325.9 13 321 11.7
2011-02-15 06:17:23 51°15.503 2°53.791 325.2 13.1 320 11.6
2011-02-15 06:17:28 51°15.517 2°53.772 324.4 13.1 319 11.6
2011-02-15 06:17:33 51°15.531 2°53.753 323.5 13 318 11.3
2011-02-15 06:17:38 51°15.544 2°53.733 322.3 13 318 11.4
2011-02-15 06:17:42 51°15.555 2°53.718 322 13 318 11.5
2011-02-15 06:17:48 51°15.571 2°53.694 321.6 13.1 317 11.3
2011-02-15 06:17:53 51°15.584 2°53.675 321.4 13.1 317 11.3
2011-02-15 06:17:58 51°15.598 2°53.655 321.5 13.1 318 11.3
2011-02-15 06:18:02 51°15.609 2°53.64 322.3 13.1 318 11.4
2011-02-15 06:18:08 51°15.625 2°53.617 323 13.1 319 11.3
2011-02-15 06:18:13 51°15.639 2°53.599 324.2 13 321 11.3
2011-02-15 06:18:18 51°15.653 2°53.581 324.8 13 321 11.6
2011-02-15 06:18:23 51°15.667 2°53.563 325.5 13 321 11.4
2011-02-15 06:18:28 51°15.681 2°53.545 325.7 13 322 11.5
2011-02-15 06:18:33 51°15.695 2°53.527 325.9 13.1 322 11.7
2011-02-15 06:18:38 51°15.71 2°53.511 327.1 13.1 324 11.5
2011-02-15 06:18:42 51°15.722 2°53.498 329 12.9 327 11.6
2011-02-15 06:18:48 51°15.74 2°53.48 331.1 12.9 328 11.6
2011-02-15 06:18:53 51°15.756 2°53.467 333.6 12.9 332 11.8
2011-02-15 06:18:58 51°15.772 2°53.454 336 12.9 334 11.7
2011-02-15 06:19:03 51°15.789 2°53.443 338.5 12.9 337 11.9
2011-02-15 06:19:08 51°15.805 2°53.432 340.8 12.9 338 12.3
2011-02-15 06:19:13 51°15.822 2°53.421 342.6 12.8 339 11.9
2011-02-15 06:19:18 51°15.838 2°53.412 344 12.9 339 12.1
2011-02-15 06:19:22 51°15.852 2°53.404 344.1 12.9 339 12.3
2011-02-15 06:19:28 51°15.872 2°53.391 343.8 12.9 339 11.9
2011-02-15 06:19:33 51°15.889 2°53.381 343 12.9 337 12.4
2011-02-15 06:19:38 51°15.905 2°53.37 341.7 12.9 337 12.1
2011-02-15 06:19:42 51°15.918 2°53.361 341 12.9 336 12.5
2011-02-15 06:19:48 51°15.937 2°53.345 339.8 12.9 334 12
2011-02-15 06:19:53 51°15.954 2°53.333 339.3 12.9 334 12
2011-02-15 06:19:58 51°15.97 2°53.321 338.8 13 334 12.1
2011-02-15 06:20:02 51°15.983 2°53.31 338.4 12.9 333 12
2011-02-15 06:20:08 51°16.002 2°53.295 338.3 12.9 334 12
2011-02-15 06:20:13 51°16.018 2°53.283 338.4 12.9 334 12
2011-02-15 06:20:18 51°16.034 2°53.271 338.9 12.9 335 12.1
2011-02-15 06:20:22 51°16.047 2°53.261 339.8 12.9 336 12
2011-02-15 06:20:28 51°16.067 2°53.248 340.3 12.9 336 12
2011-02-15 06:20:33 51°16.083 2°53.237 340.5 12.9 337 12.2
2011-02-15 06:20:38 51°16.1 2°53.225 340.5 12.9 336 12.2
2011-02-15 06:20:42 51°16.113 2°53.215 340.5 12.9 336 12.1
2011-02-15 06:20:48 51°16.132 2°53.202 340.5 12.9 336 12.2
2011-02-15 06:20:53 51°16.149 2°53.19 340 12.9 335 12.2
2011-02-15 06:20:58 51°16.165 2°53.178 339.7 12.9 335 12.2
2011-02-15 06:21:03 51°16.182 2°53.166 339 12.9 335 12.2
2011-02-15 06:21:08 51°16.198 2°53.154 338.5 12.9 334 12.2
2011-02-15 06:21:13 51°16.213 2°53.141 337.9 12.9 333 12.2
2011-02-15 06:21:18 51°16.229 2°53.128 337.5 12.9 333 12.2
2011-02-15 06:21:23 51°16.245 2°53.116 337.5 12.9 334 12.3
2011-02-15 06:21:28 51°16.262 2°53.103 337.4 12.9 334 12.3
2011-02-15 06:21:33 51°16.278 2°53.091 337.4 12.9 334 12.4
2011-02-15 06:21:38 51°16.294 2°53.078 337.6 12.9 334 12.4
2011-02-15 06:21:42 51°16.307 2°53.068 337.6 12.9 334 12.2
2011-02-15 06:21:48 51°16.326 2°53.052 337.8 12.9 334 12.2
2011-02-15 06:21:53 51°16.342 2°53.04 338 13 335 12.4
2011-02-15 06:21:58 51°16.358 2°53.028 338.3 12.9 335 12.4
2011-02-15 06:22:02 51°16.371 2°53.018 338.5 12.9 335 12.2
2011-02-15 06:22:08 51°16.391 2°53.004 338.5 12.9 335 12.4
2011-02-15 06:22:13 51°16.407 2°52.992 338.5 12.9 335 12.3
2011-02-15 06:22:18 51°16.423 2°52.979 338.3 12.9 334 12.2
2011-02-15 06:22:22 51°16.436 2°52.969 337.9 12.9 334 12.3
2011-02-15 06:22:28 51°16.456 2°52.955 337.6 12.9 334 12.3
2011-02-15 06:22:33 51°16.472 2°52.942 336.9 12.9 333 12.4
2011-02-15 06:22:38 51°16.488 2°52.93 336.5 12.9 333 12.3
2011-02-15 06:22:43 51°16.504 2°52.917 336.3 12.9 333 12.1
2011-02-15 06:22:48 51°16.52 2°52.904 336.2 12.9 333 12.2
2011-02-15 06:22:53 51°16.536 2°52.892 336.3 12.9 334 12.1
2011-02-15 06:22:58 51°16.552 2°52.879 336.9 12.9 334 12
2011-02-15 06:23:02 51°16.565 2°52.869 337.3 12.9 334 12.2
2011-02-15 06:23:08 51°16.584 2°52.853 337.4 12.9 334 11.9
2011-02-15 06:23:13 51°16.6 2°52.84 337.6 12.9 335 11.8
2011-02-15 06:23:18 51°16.615 2°52.827 337.6 12.9 334 11.9
2011-02-15 06:23:23 51°16.631 2°52.814 337.5 12.8 334 11.8
2011-02-15 06:23:28 51°16.647 2°52.802 337.5 12.8 335 11.7
2011-02-15 06:23:33 51°16.663 2°52.789 337.6 12.8 334 11.4
2011-02-15 06:23:38 51°16.679 2°52.776 337.6 12.8 334 11.2
2011-02-15 06:23:43 51°16.695 2°52.764 337.4 12.8 334 11.3
2011-02-15 06:23:48 51°16.71 2°52.751 336.9 12.8 333 10.9
2011-02-15 06:23:53 51°16.726 2°52.738 336.8 12.8 333 10.9
2011-02-15 06:23:58 51°16.742 2°52.726 336.8 12.8 334 10.6
2011-02-15 06:24:02 51°16.755 2°52.717 337.1 12.7 336 10
2011-02-15 06:24:08 51°16.775 2°52.704 339 12.6 337 10.3
2011-02-15 06:24:13 51°16.791 2°52.694 340.7 12.6 339 10.1
2011-02-15 06:24:18 51°16.808 2°52.685 341.8 12.7 339 10.2
2011-02-15 06:24:22 51°16.821 2°52.677 342.4 12.6 340 10
2011-02-15 06:24:28 51°16.84 2°52.664 342.8 12.6 339 10
2011-02-15 06:24:33 51°16.857 2°52.655 342.7 12.6 339 10
2011-02-15 06:24:38 51°16.873 2°52.644 342.3 12.6 338 9.9
2011-02-15 06:24:42 51°16.886 2°52.635 341.8 12.6 337 10
2011-02-15 06:24:48 51°16.905 2°52.623 341.1 12.6 337 10.3
2011-02-15 06:24:53 51°16.921 2°52.611 340.2 12.7 336 10.3
2011-02-15 06:24:58 51°16.937 2°52.599 339.6 12.7 335 10.5
2011-02-15 06:25:03 51°16.953 2°52.587 339 12.8 335 10.2
2011-02-15 06:25:08 51°16.969 2°52.574 338.6 12.7 334 10.3
2011-02-15 06:25:13 51°16.985 2°52.562 338.4 12.7 335 10.3
2011-02-15 06:25:18 51°17.001 2°52.55 338.4 12.7 335 10
2011-02-15 06:25:23 51°17.017 2°52.539 339.2 12.7 336 10.1
2011-02-15 06:25:28 51°17.033 2°52.529 340.2 12.7 337 10.2
2011-02-15 06:25:33 51°17.05 2°52.52 340.9 12.6 339 10
2011-02-15 06:25:38 51°17.067 2°52.511 342.2 12.6 341 10.3
2011-02-15 06:25:42 51°17.08 2°52.506 346.1 12.6 347 10.3
2011-02-15 06:25:48 51°17.101 2°52.499 349.9 12.6 351 10.4
2011-02-15 06:25:53 51°17.118 2°52.495 353.4 12.6 353 10.4
2011-02-15 06:25:58 51°17.135 2°52.492 356.2 12.5 355 10.5
2011-02-15 06:26:03 51°17.152 2°52.49 358 12.6 356 10.4
2011-02-15 06:26:08 51°17.17 2°52.49 359.6 12.5 358 10.5
2011-02-15 06:26:13 51°17.188 2°52.489 0.5 12.6 358 10.4
2011-02-15 06:26:18 51°17.205 2°52.488 1.3 12.6 359 10.7
2011-02-15 06:26:22 51°17.219 2°52.488 1.9 12.6 359 10.6
2011-02-15 06:26:28 51°17.24 2°52.488 2.4 12.6 -999 10.5
2011-02-15 06:26:33 51°17.257 2°52.488 2.9 12.6 -999 10.5
2011-02-15 06:26:38 51°17.275 2°52.488 3.1 12.6 -999 10.7
2011-02-15 06:26:42 51°17.289 2°52.487 2.8 12.6 359 10.7
2011-02-15 06:26:48 51°17.31 2°52.486 2.4 12.6 359 10.7
2011-02-15 06:26:53 51°17.327 2°52.485 1.9 12.6 358 10.8
2011-02-15 06:26:58 51°17.345 2°52.485 1.2 12.7 358 10.7
2011-02-15 06:27:02 51°17.359 2°52.483 0.5 12.6 357 10.7
2011-02-15 06:27:08 51°17.38 2°52.481 0.1 12.6 357 10.6
2011-02-15 06:27:13 51°17.397 2°52.479 0.1 12.6 356 10.7
2011-02-15 06:27:18 51°17.415 2°52.478 -999 12.6 357 10.9
2011-02-15 06:27:23 51°17.432 2°52.477 0.3 12.6 358 10.8
2011-02-15 06:27:28 51°17.45 2°52.476 0.8 12.6 358 10.5
2011-02-15 06:27:33 51°17.467 2°52.475 0.9 12.6 358 10.8
2011-02-15 06:27:38 51°17.485 2°52.474 1 12.6 358 10.9
2011-02-15 06:27:43 51°17.502 2°52.473 1.1 12.6 358 10.7
2011-02-15 06:27:48 51°17.52 2°52.472 1 12.6 358 10.8
2011-02-15 06:27:53 51°17.537 2°52.471 1 12.6 358 11
2011-02-15 06:27:58 51°17.555 2°52.469 1.1 12.6 358 10.8
2011-02-15 06:28:02 51°17.568 2°52.468 1.1 12.6 357 10.8
2011-02-15 06:28:08 51°17.589 2°52.467 1 12.6 358 10.8
2011-02-15 06:28:13 51°17.607 2°52.466 1 12.6 358 10.9
2011-02-15 06:28:18 51°17.624 2°52.464 1 12.5 358 10.5
2011-02-15 06:28:23 51°17.641 2°52.464 1.3 12.5 358 11
2011-02-15 06:28:28 51°17.659 2°52.463 1.3 12.6 358 10.8
2011-02-15 06:28:33 51°17.676 2°52.462 1.2 12.6 358 10.8
2011-02-15 06:28:38 51°17.694 2°52.461 0.9 12.6 358 10.8
2011-02-15 06:28:42 51°17.708 2°52.46 0.7 12.6 357 10.8
2011-02-15 06:28:48 51°17.729 2°52.458 0.4 12.6 357 10.4
2011-02-15 06:28:53 51°17.747 2°52.457 0.1 12.6 357 10.8
2011-02-15 06:28:58 51°17.764 2°52.455 -999 12.6 356 10.9
2011-02-15 06:29:03 51°17.781 2°52.454 359.8 12.6 357 10.9
2011-02-15 06:29:08 51°17.799 2°52.452 359.7 12.6 357 10.9
2011-02-15 06:29:13 51°17.816 2°52.451 359.8 12.6 357 10.8
2011-02-15 06:29:18 51°17.834 2°52.449 0.1 12.6 357 10.9
2011-02-15 06:29:23 51°17.851 2°52.447 0.1 12.6 357 10.7
2011-02-15 06:29:28 51°17.869 2°52.446 0.2 12.6 357 10.8
2011-02-15 06:29:33 51°17.886 2°52.445 0.2 12.6 358 10.9
2011-02-15 06:29:38 51°17.904 2°52.443 0.6 12.6 357 10.9
2011-02-15 06:29:42 51°17.918 2°52.442 0.7 12.6 358 11.1
2011-02-15 06:29:48 51°17.938 2°52.441 0.9 12.5 358 11.2
2011-02-15 06:29:53 51°17.956 2°52.44 0.8 12.5 357 11.2
2011-02-15 06:29:58 51°17.973 2°52.439 0.8 12.6 357 10.9
2011-02-15 06:30:03 51°17.991 2°52.437 0.4 12.6 357 10.8
2011-02-15 06:30:08 51°18.008 2°52.436 0.3 12.6 357 11.3
2011-02-15 06:30:13 51°18.026 2°52.434 0.1 12.6 358 11.3
2011-02-15 06:30:18 51°18.043 2°52.433 -999 12.6 357 11.3
2011-02-15 06:30:22 51°18.057 2°52.431 0.1 12.6 357 11.1
2011-02-15 06:30:28 51°18.078 2°52.43 0.5 12.6 357 11
2011-02-15 06:30:33 51°18.096 2°52.428 0.5 12.6 357 11.1
2011-02-15 06:30:38 51°18.113 2°52.427 0.4 12.6 357 11.3
2011-02-15 06:30:43 51°18.131 2°52.425 -999 12.6 356 11.2
2011-02-15 06:30:48 51°18.148 2°52.423 359.7 12.6 356 11
2011-02-15 06:30:53 51°18.166 2°52.421 359.4 12.7 355 11.2
2011-02-15 06:30:58 51°18.183 2°52.419 359 12.6 356 11.2
2011-02-15 06:31:02 51°18.197 2°52.417 359 12.6 355 11.1
2011-02-15 06:31:08 51°18.218 2°52.415 358.9 12.6 356 11.2
2011-02-15 06:31:13 51°18.236 2°52.413 359.1 12.7 356 11.5
2011-02-15 06:31:18 51°18.253 2°52.411 359.3 12.7 356 11.4
2011-02-15 06:31:23 51°18.271 2°52.41 359.7 12.6 357 11.5
2011-02-15 06:31:28 51°18.288 2°52.409 359.7 12.6 357 11.5
2011-02-15 06:31:33 51°18.306 2°52.407 0.2 12.6 357 11.6
2011-02-15 06:31:38 51°18.323 2°52.405 0.2 12.6 357 11.6
2011-02-15 06:31:43 51°18.341 2°52.404 0.2 12.6 357 11.5
2011-02-15 06:31:48 51°18.358 2°52.402 0.2 12.6 357 11.5
2011-02-15 06:31:53 51°18.375 2°52.401 0.3 12.7 357 11.6
2011-02-15 06:31:58 51°18.393 2°52.4 0.3 12.7 358 11.7
2011-02-15 06:32:02 51°18.407 2°52.398 0.3 12.7 357 11.7
2011-02-15 06:32:08 51°18.428 2°52.396 0.2 12.6 357 11.8
2011-02-15 06:32:13 51°18.446 2°52.395 0.3 12.6 357 11.7
2011-02-15 06:32:18 51°18.463 2°52.394 0.5 12.6 357 12
2011-02-15 06:32:23 51°18.48 2°52.392 0.3 12.6 357 11.9
2011-02-15 06:32:28 51°18.498 2°52.39 0.1 12.6 356 12
2011-02-15 06:32:33 51°18.515 2°52.388 359.7 12.6 356 12
2011-02-15 06:32:38 51°18.533 2°52.386 359.4 12.6 356 12
2011-02-15 06:32:42 51°18.547 2°52.384 359 12.6 355 12.3
2011-02-15 06:32:48 51°18.568 2°52.382 358.8 12.6 355 12.2
2011-02-15 06:32:53 51°18.585 2°52.38 358.6 12.6 355 12.2
2011-02-15 06:32:58 51°18.603 2°52.377 358.5 12.7 356 12.1
2011-02-15 06:33:03 51°18.62 2°52.375 358.6 12.7 356 12.3
2011-02-15 06:33:08 51°18.638 2°52.372 358.8 12.6 355 12.3
2011-02-15 06:33:13 51°18.655 2°52.37 358.9 12.7 356 12.4
2011-02-15 06:33:18 51°18.673 2°52.368 359.2 12.7 356 12.4
2011-02-15 06:33:23 51°18.69 2°52.367 359.2 12.7 357 12.5
2011-02-15 06:33:28 51°18.708 2°52.365 359.4 12.7 356 12.6
2011-02-15 06:33:33 51°18.725 2°52.363 359.5 12.6 356 12.7
2011-02-15 06:33:38 51°18.743 2°52.361 359.7 12.6 356 12.7
2011-02-15 06:33:42 51°18.757 2°52.36 359.6 12.7 356 12.9
2011-02-15 06:33:48 51°18.778 2°52.357 359.5 12.7 356 12.9
2011-02-15 06:33:53 51°18.795 2°52.355 359.3 12.7 356 13
2011-02-15 06:33:58 51°18.813 2°52.353 359.3 12.7 356 13.1
2011-02-15 06:34:03 51°18.831 2°52.351 359.3 12.7 356 13.2
2011-02-15 06:34:08 51°18.848 2°52.349 359.4 12.6 356 13.2
2011-02-15 06:34:13 51°18.866 2°52.347 359.3 12.7 356 13.3
2011-02-15 06:34:18 51°18.883 2°52.344 359.2 12.7 355 13.4
2011-02-15 06:34:22 51°18.897 2°52.343 359 12.7 355 13.4
2011-02-15 06:34:28 51°18.918 2°52.34 358.6 12.7 355 13.7
2011-02-15 06:34:33 51°18.936 2°52.338 358.6 12.7 355 13.5
2011-02-15 06:34:38 51°18.953 2°52.336 358.6 12.6 356 13.9
2011-02-15 06:34:43 51°18.971 2°52.333 358.7 12.7 356 13.8
2011-02-15 06:34:48 51°18.988 2°52.331 358.9 12.7 356 13.9
2011-02-15 06:34:53 51°19.005 2°52.329 359.1 12.6 356 14
2011-02-15 06:34:58 51°19.023 2°52.327 359.4 12.6 356 14.1
2011-02-15 06:35:02 51°19.037 2°52.325 359.5 12.6 356 14.3
2011-02-15 06:35:08 51°19.058 2°52.322 359.4 12.6 355 14.3
2011-02-15 06:35:13 51°19.075 2°52.32 359.1 12.6 356 14.4
2011-02-15 06:35:18 51°19.093 2°52.318 359.1 12.7 355 14.5
2011-02-15 06:35:23 51°19.11 2°52.315 359.1 12.6 355 14.6
2011-02-15 06:35:28 51°19.128 2°52.313 359.1 12.7 355 14.6
2011-02-15 06:35:33 51°19.145 2°52.311 359.1 12.7 356 14.8
2011-02-15 06:35:38 51°19.162 2°52.309 359.1 12.6 356 14.8
2011-02-15 06:35:43 51°19.18 2°52.306 359.3 12.6 356 14.9
2011-02-15 06:35:48 51°19.197 2°52.304 359.5 12.6 356 15.1
2011-02-15 06:35:53 51°19.215 2°52.302 359.9 12.6 356 15.1
2011-02-15 06:35:58 51°19.232 2°52.3 0.1 12.7 356 15.1
2011-02-15 06:36:02 51°19.246 2°52.298 0.1 12.6 356 15.3
2011-02-15 06:36:08 51°19.267 2°52.296 359.8 12.7 356 15.5
2011-02-15 06:36:13 51°19.285 2°52.294 359.5 12.6 355 15.3
2011-02-15 06:36:18 51°19.302 2°52.291 359.1 12.6 355 15.4
2011-02-15 06:36:23 51°19.32 2°52.288 358.8 12.6 354 15.8
2011-02-15 06:36:28 51°19.337 2°52.286 358.8 12.6 355 15.8
2011-02-15 06:36:33 51°19.355 2°52.284 359.1 12.6 355 15.8
2011-02-15 06:36:38 51°19.372 2°52.282 359 12.6 356 15.8
2011-02-15 06:36:42 51°19.386 2°52.28 359.2 12.6 355 16
2011-02-15 06:36:48 51°19.407 2°52.277 359.9 12.6 357 16
2011-02-15 06:36:53 51°19.424 2°52.277 1.1 12.6 358 16
2011-02-15 06:36:58 51°19.442 2°52.277 2.3 12.6 -999 15.9
2011-02-15 06:37:03 51°19.459 2°52.277 3.1 12.6 -999 15.9
2011-02-15 06:37:08 51°19.477 2°52.277 3.7 12.5 -999 16
2011-02-15 06:37:13 51°19.494 2°52.277 4.2 12.5 1 16.2
2011-02-15 06:37:18 51°19.511 2°52.277 4.9 12.6 1 16.2
2011-02-15 06:37:23 51°19.529 2°52.278 5.1 12.6 1 16
2011-02-15 06:37:28 51°19.546 2°52.278 5.2 12.6 1 16.1
2011-02-15 06:37:33 51°19.564 2°52.279 5.3 12.6 1 16.3
2011-02-15 06:37:38 51°19.581 2°52.279 5.2 12.6 1 16.5
2011-02-15 06:37:42 51°19.595 2°52.28 4.9 12.7 1 16.3
2011-02-15 06:37:48 51°19.616 2°52.28 4.8 12.7 1 16.4
2011-02-15 06:37:53 51°19.634 2°52.28 4.5 12.7 -999 16.4
2011-02-15 06:37:58 51°19.652 2°52.281 4.3 12.6 1 16.4
2011-02-15 06:38:03 51°19.669 2°52.281 4.4 12.6 1 16.5
2011-02-15 06:38:08 51°19.687 2°52.282 4.7 12.7 1 16.5
2011-02-15 06:38:13 51°19.704 2°52.282 5.1 12.7 1 16.5
2011-02-15 06:38:18 51°19.722 2°52.283 5 12.7 1 16.5
2011-02-15 06:38:22 51°19.736 2°52.283 4.8 12.7 1 16.6
2011-02-15 06:38:28 51°19.757 2°52.283 4.6 12.7 -999 16.5
2011-02-15 06:38:33 51°19.774 2°52.284 4.6 12.7 1 16.8
2011-02-15 06:38:38 51°19.792 2°52.284 4.6 12.7 1 16.8
2011-02-15 06:38:43 51°19.81 2°52.285 4.5 12.7 1 16.6
2011-02-15 06:38:48 51°19.827 2°52.284 4.4 12.7 -999 16.7
2011-02-15 06:38:53 51°19.845 2°52.285 4 12.7 -999 16.8
2011-02-15 06:38:58 51°19.863 2°52.285 3.9 12.7 -999 16.7
2011-02-15 06:39:02 51°19.877 2°52.285 4 12.7 1 16.8
2011-02-15 06:39:08 51°19.898 2°52.286 4.5 12.7 2 16.9
2011-02-15 06:39:13 51°19.915 2°52.286 4.7 12.7 -999 16.7
2011-02-15 06:39:18 51°19.933 2°52.287 4.3 12.6 1 16.8
2011-02-15 06:39:23 51°19.951 2°52.287 4.7 12.7 1 16.8
2011-02-15 06:39:28 51°19.968 2°52.287 4.6 12.7 1 17
2011-02-15 06:39:33 51°19.986 2°52.287 4.4 12.7 1 16.9
2011-02-15 06:39:38 51°20.003 2°52.288 4.3 12.7 -999 16.8
2011-02-15 06:39:43 51°20.021 2°52.289 4 12.7 1 16.9
2011-02-15 06:39:48 51°20.039 2°52.289 3.9 12.7 1 17
2011-02-15 06:39:53 51°20.056 2°52.288 3.8 12.7 -999 16.9
2011-02-15 06:39:58 51°20.074 2°52.288 3.8 12.7 -999 16.8
2011-02-15 06:40:02 51°20.088 2°52.288 3.6 12.7 -999 16.7
2011-02-15 06:40:08 51°20.109 2°52.288 3.5 12.7 -999 16.8
2011-02-15 06:40:13 51°20.127 2°52.288 3.5 12.7 -999 16.7
2011-02-15 06:40:18 51°20.145 2°52.288 3.6 12.7 -999 16.9
2011-02-15 06:40:23 51°20.162 2°52.287 3.8 12.7 -999 16.8
2011-02-15 06:40:28 51°20.18 2°52.288 3.9 12.6 -999 16.8
2011-02-15 06:40:33 51°20.197 2°52.289 4.3 12.7 1 16.7
2011-02-15 06:40:38 51°20.215 2°52.289 4.5 12.8 1 16.8
2011-02-15 06:40:42 51°20.229 2°52.29 4.6 12.7 2 16.7
2011-02-15 06:40:48 51°20.25 2°52.291 4.5 12.7 1 16.5
2011-02-15 06:40:53 51°20.268 2°52.292 5.3 12.7 3 16.5
2011-02-15 06:40:58 51°20.286 2°52.294 6.4 12.7 4 16.5
2011-02-15 06:41:03 51°20.303 2°52.296 7.3 12.7 5 16.5
2011-02-15 06:41:08 51°20.321 2°52.299 8.2 12.8 6 16.5
2011-02-15 06:41:13 51°20.338 2°52.303 9 12.7 7 16.5
2011-02-15 06:41:18 51°20.356 2°52.306 9.7 12.7 6 16.3
2011-02-15 06:41:23 51°20.373 2°52.309 9.8 12.7 7 16.2
2011-02-15 06:41:28 51°20.391 2°52.312 10.2 12.7 7 16.1
2011-02-15 06:41:33 51°20.408 2°52.316 10.3 12.7 7 15.9
2011-02-15 06:41:38 51°20.426 2°52.319 10.2 12.7 7 15.8
2011-02-15 06:41:42 51°20.44 2°52.322 10.2 12.7 7 15.8
2011-02-15 06:41:48 51°20.461 2°52.327 10.2 12.7 6 15.6
2011-02-15 06:41:53 51°20.479 2°52.331 10.1 12.7 8 15.3
2011-02-15 06:41:58 51°20.496 2°52.334 10.3 12.8 7 15.4
2011-02-15 06:42:03 51°20.513 2°52.337 10.3 12.8 7 15.3
2011-02-15 06:42:08 51°20.531 2°52.34 10.2 12.7 7 15.3
2011-02-15 06:42:13 51°20.548 2°52.344 10.3 12.7 7 15.2
2011-02-15 06:42:18 51°20.565 2°52.347 10.3 12.7 7 15.2
2011-02-15 06:42:22 51°20.579 2°52.35 10.4 12.7 7 14.8
2011-02-15 06:42:28 51°20.6 2°52.354 10.7 12.6 8 15.1
2011-02-15 06:42:33 51°20.617 2°52.358 10.8 12.6 7 14.5
2011-02-15 06:42:38 51°20.635 2°52.362 10.9 12.6 8 15.2
2011-02-15 06:42:43 51°20.652 2°52.366 10.6 12.6 8 15.3
2011-02-15 06:42:48 51°20.67 2°52.37 10.4 12.7 7 15.2
2011-02-15 06:42:53 51°20.688 2°52.373 10 12.7 7 15
2011-02-15 06:42:58 51°20.705 2°52.377 9.7 12.7 7 15
2011-02-15 06:43:02 51°20.719 2°52.379 9.3 12.7 6 14.9
2011-02-15 06:43:08 51°20.74 2°52.382 9.3 12.7 7 14.9
2011-02-15 06:43:13 51°20.758 2°52.385 9.6 12.7 7 14.9
2011-02-15 06:43:18 51°20.775 2°52.388 9.7 12.7 7 14.8
2011-02-15 06:43:23 51°20.793 2°52.392 10 12.7 7 14.9
2011-02-15 06:43:28 51°20.81 2°52.395 9.5 12.7 6 14.9
2011-02-15 06:43:33 51°20.827 2°52.397 9.6 12.7 6 15
2011-02-15 06:43:38 51°20.845 2°52.4 9.3 12.7 6 15
2011-02-15 06:43:43 51°20.863 2°52.403 9.3 12.7 6 15.2
2011-02-15 06:43:48 51°20.88 2°52.406 9.1 12.7 6 15.3
2011-02-15 06:43:53 51°20.898 2°52.409 9 12.7 6 15.2
2011-02-15 06:43:58 51°20.915 2°52.411 8.8 12.7 5 15.4
2011-02-15 06:44:02 51°20.929 2°52.413 8.5 12.7 5 15.6
2011-02-15 06:44:08 51°20.95 2°52.416 8.5 12.7 5 15.7
2011-02-15 06:44:13 51°20.968 2°52.419 8.6 12.7 5 15.8
2011-02-15 06:44:18 51°20.985 2°52.422 8.7 12.7 6 15.9
2011-02-15 06:44:22 51°20.999 2°52.424 9.2 12.7 6 16.2
2011-02-15 06:44:28 51°21.021 2°52.427 9.5 12.7 7 16.2
2011-02-15 06:44:33 51°21.038 2°52.43 9.6 12.7 6 16.3
2011-02-15 06:44:38 51°21.056 2°52.433 9.3 12.8 6 16.5
2011-02-15 06:44:42 51°21.07 2°52.435 9.1 12.8 5 16.5
2011-02-15 06:44:48 51°21.091 2°52.438 8.7 12.8 6 16.8
2011-02-15 06:44:53 51°21.109 2°52.44 8.8 12.8 4 16.8
2011-02-15 06:44:58 51°21.126 2°52.443 8.8 12.8 5 17
2011-02-15 06:45:03 51°21.144 2°52.446 8.8 12.8 5 17
2011-02-15 06:45:08 51°21.162 2°52.449 8.8 12.9 5 17.2
2011-02-15 06:45:13 51°21.18 2°52.451 8.8 12.9 5 17.2
2011-02-15 06:45:18 51°21.197 2°52.453 8.7 12.8 5 17.4
2011-02-15 06:45:23 51°21.215 2°52.455 8.9 12.8 5 17.3
2011-02-15 06:45:28 51°21.233 2°52.459 9.4 12.9 6 17.5
2011-02-15 06:45:33 51°21.251 2°52.463 9.6 12.9 7 17.7
2011-02-15 06:45:38 51°21.268 2°52.466 9.8 12.8 7 17.8
2011-02-15 06:45:42 51°21.282 2°52.469 10 12.9 7 17.7
2011-02-15 06:45:48 51°21.304 2°52.472 10.2 12.8 7 17.9
2011-02-15 06:45:53 51°21.321 2°52.476 10.5 12.8 8 17.8
2011-02-15 06:45:58 51°21.339 2°52.48 10.7 12.8 7 17.9
2011-02-15 06:46:03 51°21.356 2°52.483 10.3 12.8 7 18.3
2011-02-15 06:46:08 51°21.374 2°52.486 9.9 12.8 6 18.3
2011-02-15 06:46:13 51°21.391 2°52.488 9.4 12.8 5 18.1
2011-02-15 06:46:18 51°21.409 2°52.491 8.8 12.9 5 18.4
2011-02-15 06:46:22 51°21.423 2°52.492 8.1 12.8 4 18.5
2011-02-15 06:46:28 51°21.444 2°52.495 7.9 12.8 5 18.6
2011-02-15 06:46:33 51°21.462 2°52.497 8 12.8 5 18.9
2011-02-15 06:46:38 51°21.48 2°52.5 8.2 12.8 5 19.1
2011-02-15 06:46:42 51°21.494 2°52.502 8.6 12.8 6 19.2
2011-02-15 06:46:48 51°21.515 2°52.505 9.1 12.8 5 19.4
2011-02-15 06:46:53 51°21.533 2°52.508 9.3 12.8 6 19.7
2011-02-15 06:46:58 51°21.551 2°52.511 9.5 12.9 6 19.8
2011-02-15 06:47:02 51°21.565 2°52.513 9.5 12.9 5 20.1
2011-02-15 06:47:08 51°21.586 2°52.516 9.5 12.9 6 20.2
2011-02-15 06:47:13 51°21.604 2°52.519 9.3 12.8 5 20.3
2011-02-15 06:47:18 51°21.622 2°52.521 9 12.9 4 20.6
2011-02-15 06:47:23 51°21.639 2°52.524 8.7 12.9 5 20.8
2011-02-15 06:47:28 51°21.657 2°52.526 8.7 12.9 5 20.8
2011-02-15 06:47:33 51°21.675 2°52.529 9 12.8 5 21.2
2011-02-15 06:47:38 51°21.693 2°52.532 9.3 12.8 6 21.4
2011-02-15 06:47:43 51°21.71 2°52.535 9.8 12.9 6 21.6
2011-02-15 06:47:48 51°21.728 2°52.538 9.8 12.8 6 22
2011-02-15 06:47:53 51°21.746 2°52.541 9.6 12.8 6 22
2011-02-15 06:47:58 51°21.763 2°52.544 9.6 12.8 6 22.1
2011-02-15 06:48:02 51°21.777 2°52.547 9.8 12.9 6 22.2
2011-02-15 06:48:08 51°21.799 2°52.55 9.7 12.9 5 22.5
2011-02-15 06:48:13 51°21.816 2°52.552 9.5 12.9 6 22.8
2011-02-15 06:48:18 51°21.834 2°52.555 9.3 12.9 6 23.1
2011-02-15 06:48:23 51°21.852 2°52.558 9.2 12.8 6 23.3
2011-02-15 06:48:28 51°21.87 2°52.561 9.3 12.8 6 23.5
2011-02-15 06:48:33 51°21.887 2°52.563 9.4 12.9 5 23.7
2011-02-15 06:48:38 51°21.905 2°52.566 9.3 12.9 6 23.9
2011-02-15 06:48:43 51°21.923 2°52.568 9.1 12.9 4 24
2011-02-15 06:48:48 51°21.941 2°52.571 8.9 12.9 6 24.1
2011-02-15 06:48:53 51°21.959 2°52.573 9 13 5 24.1
2011-02-15 06:48:58 51°21.976 2°52.576 9.2 13 6 24.4
2011-02-15 06:49:02 51°21.991 2°52.579 9.6 12.9 7 24.5
2011-02-15 06:49:08 51°22.012 2°52.583 10 12.9 7 24.5
2011-02-15 06:49:13 51°22.03 2°52.586 10.2 12.9 7 24.8
2011-02-15 06:49:18 51°22.047 2°52.589 10.1 12.8 6 24.8
2011-02-15 06:49:23 51°22.065 2°52.593 10 12.9 8 24.7
2011-02-15 06:49:28 51°22.083 2°52.596 10.1 12.9 7 24.8
2011-02-15 06:49:33 51°22.101 2°52.601 10.2 12.9 8 24.8
2011-02-15 06:49:38 51°22.119 2°52.604 10.3 12.9 7 25.1
2011-02-15 06:49:43 51°22.136 2°52.608 10.2 12.9 8 24.8
2011-02-15 06:49:48 51°22.154 2°52.61 10.3 12.9 6 24.8
2011-02-15 06:49:53 51°22.172 2°52.614 9.8 12.8 6 24.5
2011-02-15 06:49:58 51°22.189 2°52.617 9.4 12.8 6 25.2
2011-02-15 06:50:02 51°22.204 2°52.62 9.3 12.8 7 24.8
2011-02-15 06:50:08 51°22.225 2°52.624 9.4 12.8 7 24.7
2011-02-15 06:50:13 51°22.243 2°52.627 9.4 12.9 6 24.9
2011-02-15 06:50:18 51°22.26 2°52.63 9.2 12.9 6 25
2011-02-15 06:50:23 51°22.278 2°52.632 9.1 12.9 6 24.9
2011-02-15 06:50:28 51°22.296 2°52.636 9.1 12.8 6 24.8
2011-02-15 06:50:33 51°22.314 2°52.638 8.9 12.8 6 24.8
2011-02-15 06:50:38 51°22.332 2°52.641 8.9 12.8 6 24.7
2011-02-15 06:50:43 51°22.35 2°52.644 8.9 12.9 6 24.3
2011-02-15 06:50:48 51°22.367 2°52.647 8.4 12.8 5 24.1
2011-02-15 06:50:53 51°22.385 2°52.649 8.1 12.8 5 24.1
2011-02-15 06:50:58 51°22.403 2°52.652 8.2 12.9 6 23.9
2011-02-15 06:51:03 51°22.42 2°52.655 8.5 12.8 6 23.9
2011-02-15 06:51:08 51°22.438 2°52.658 9.2 12.8 6 24
2011-02-15 06:51:13 51°22.456 2°52.661 9.5 12.8 6 23.6
2011-02-15 06:51:18 51°22.473 2°52.665 9.6 12.9 7 23.5
2011-02-15 06:51:23 51°22.491 2°52.668 9.5 12.8 6 24
2011-02-15 06:51:28 51°22.509 2°52.67 9 12.8 6 24.1
2011-02-15 06:51:33 51°22.526 2°52.673 8.9 12.9 5 24.1
2011-02-15 06:51:38 51°22.544 2°52.676 9 12.8 7 23.7
2011-02-15 06:51:43 51°22.562 2°52.679 9.1 12.8 5 23.5
2011-02-15 06:51:48 51°22.58 2°52.683 9.1 12.8 7 23.8
2011-02-15 06:51:53 51°22.597 2°52.685 8.8 12.9 5 23.3
2011-02-15 06:51:58 51°22.615 2°52.688 8.5 12.8 6 23.4
2011-02-15 06:52:03 51°22.633 2°52.69 8.5 12.8 5 23.3
2011-02-15 06:52:08 51°22.65 2°52.693 8.5 12.7 5 23.5
2011-02-15 06:52:13 51°22.668 2°52.695 8.5 12.7 6 23.3
2011-02-15 06:52:18 51°22.686 2°52.698 8.6 12.8 6 23.6
2011-02-15 06:52:23 51°22.703 2°52.7 8.3 12.8 5 23.9
2011-02-15 06:52:28 51°22.721 2°52.704 8.5 12.8 6 23.7
2011-02-15 06:52:33 51°22.739 2°52.707 8.8 12.9 6 23.7
2011-02-15 06:52:38 51°22.756 2°52.711 9.4 12.8 7 23.8
2011-02-15 06:52:43 51°22.774 2°52.713 9.5 12.8 6 24
2011-02-15 06:52:48 51°22.792 2°52.717 9.5 12.8 7 24
2011-02-15 06:52:53 51°22.809 2°52.719 9.6 12.8 6 24.1
2011-02-15 06:52:58 51°22.827 2°52.723 9.5 12.8 6 23.8
2011-02-15 06:53:03 51°22.845 2°52.726 9.4 12.8 6 23.9
2011-02-15 06:53:08 51°22.862 2°52.729 9.1 12.8 7 23.7
2011-02-15 06:53:13 51°22.88 2°52.732 9.3 12.8 7 23.4
2011-02-15 06:53:18 51°22.897 2°52.737 10.5 12.7 9 23.2
2011-02-15 06:53:23 51°22.914 2°52.742 12.1 12.8 10 22.7
2011-02-15 06:53:28 51°22.932 2°52.746 12.9 12.7 10 22.4
2011-02-15 06:53:33 51°22.949 2°52.751 13.4 12.7 11 21.3
2011-02-15 06:53:38 51°22.967 2°52.757 13.9 12.7 11 23.6
2011-02-15 06:53:43 51°22.984 2°52.763 14.7 12.7 12 24.4
2011-02-15 06:53:47 51°22.998 2°52.768 14.8 12.7 13 24.2
2011-02-15 06:53:53 51°23.018 2°52.775 15.4 12.7 12 24.3
2011-02-15 06:53:58 51°23.036 2°52.781 15.3 12.8 12 23.9
2011-02-15 06:54:02 51°23.049 2°52.786 15.3 12.8 12 23.5
2011-02-15 06:54:08 51°23.07 2°52.793 14.8 12.7 12 23.2
2011-02-15 06:54:13 51°23.088 2°52.798 14.8 12.8 11 23.1
2011-02-15 06:54:18 51°23.105 2°52.803 14.5 12.7 10 22.7
2011-02-15 06:54:23 51°23.122 2°52.809 14.2 12.6 11 22.3
2011-02-15 06:54:28 51°23.139 2°52.814 13.9 12.7 11 21.2
2011-02-15 06:54:33 51°23.157 2°52.82 14.4 12.7 12 19.3
2011-02-15 06:54:38 51°23.174 2°52.826 14.8 12.7 12 22.5
2011-02-15 06:54:43 51°23.191 2°52.832 15 12.7 12 22.1
2011-02-15 06:54:48 51°23.209 2°52.838 15.3 12.7 12 22.1
2011-02-15 06:54:53 51°23.226 2°52.844 15.4 12.8 12 21.9
2011-02-15 06:54:58 51°23.243 2°52.85 15.1 12.7 12 22
2011-02-15 06:55:03 51°23.261 2°52.855 15 12.6 12 21.7
2011-02-15 06:55:08 51°23.278 2°52.861 15.1 12.6 11 21.7
2011-02-15 06:55:13 51°23.295 2°52.867 14.8 12.7 11 20.2
2011-02-15 06:55:18 51°23.312 2°52.873 14.3 12.7 11 21.9
2011-02-15 06:55:22 51°23.326 2°52.877 13.9 12.7 10 21.8
2011-02-15 06:55:28 51°23.347 2°52.883 13.9 12.6 12 21.8
2011-02-15 06:55:33 51°23.364 2°52.888 13.8 12.7 10 21.7
2011-02-15 06:55:38 51°23.381 2°52.893 13.5 12.7 11 21.6
2011-02-15 06:55:42 51°23.395 2°52.897 13.6 12.7 10 21.6
2011-02-15 06:55:48 51°23.416 2°52.904 13.3 12.8 11 21.6
2011-02-15 06:55:53 51°23.433 2°52.908 13.5 12.7 10 21.6
2011-02-15 06:55:58 51°23.451 2°52.914 13.6 12.7 11 21.6
2011-02-15 06:56:02 51°23.465 2°52.919 13.7 12.8 10 21.7
2011-02-15 06:56:08 51°23.485 2°52.926 13.5 12.8 12 21.7
2011-02-15 06:56:13 51°23.503 2°52.93 13.9 12.8 10 22
2011-02-15 06:56:18 51°23.52 2°52.936 13.5 12.8 11 22.1
2011-02-15 06:56:23 51°23.538 2°52.941 13.6 12.8 10 22.1
2011-02-15 06:56:28 51°23.555 2°52.946 13.6 12.8 11 21.6
2011-02-15 06:56:33 51°23.573 2°52.952 13.7 12.8 11 22.2
2011-02-15 06:56:38 51°23.59 2°52.957 13.5 12.8 11 22.5
2011-02-15 06:56:43 51°23.607 2°52.962 13.3 12.7 11 21.6
2011-02-15 06:56:48 51°23.625 2°52.968 13.7 12.8 12 21.8
2011-02-15 06:56:53 51°23.642 2°52.973 13.9 12.8 11 22
2011-02-15 06:56:58 51°23.66 2°52.979 13.9 12.8 11 22.3
2011-02-15 06:57:03 51°23.677 2°52.985 14 12.8 12 22.1
2011-02-15 06:57:08 51°23.694 2°52.99 14.3 12.7 11 22.1
2011-02-15 06:57:13 51°23.711 2°52.996 14.1 12.7 11 22.1
2011-02-15 06:57:18 51°23.729 2°53.001 14.2 12.7 11 20.8
2011-02-15 06:57:23 51°23.746 2°53.006 13.5 12.8 10 20.9
2011-02-15 06:57:28 51°23.764 2°53.011 13.2 12.7 10 21.4
2011-02-15 06:57:33 51°23.781 2°53.017 13.5 12.7 11 21.5
2011-02-15 06:57:38 51°23.798 2°53.022 13.6 12.8 10 21.5
2011-02-15 06:57:43 51°23.816 2°53.028 13.3 12.8 12 21
2011-02-15 06:57:48 51°23.833 2°53.032 13.6 12.8 10 20.2
2011-02-15 06:57:53 51°23.85 2°53.038 13 12.8 10 20.6
2011-02-15 06:57:58 51°23.868 2°53.042 12.5 12.8 9 20.5
2011-02-15 06:58:02 51°23.882 2°53.045 11.8 12.8 9 20.3
2011-02-15 06:58:08 51°23.903 2°53.05 11.6 12.8 8 20.5
2011-02-15 06:58:13 51°23.92 2°53.054 11.1 12.8 9 19.3
2011-02-15 06:58:18 51°23.938 2°53.058 11.2 12.8 8 20
2011-02-15 06:58:23 51°23.955 2°53.063 11.2 12.7 9 17.8
2011-02-15 06:58:27 51°23.969 2°53.067 11.9 12.8 10 18.7
2011-02-15 06:58:33 51°23.99 2°53.073 12.3 12.7 11 18.4
2011-02-15 06:58:38 51°24.007 2°53.079 13.5 12.7 12 19
2011-02-15 06:58:42 51°24.021 2°53.083 13.8 12.8 11 19.4
2011-02-15 06:58:48 51°24.042 2°53.09 13.8 12.8 12 18.1
2011-02-15 06:58:53 51°24.06 2°53.095 13.8 12.7 10 18.4
2011-02-15 06:58:58 51°24.076 2°53.1 13.3 12.6 11 19
2011-02-15 06:59:03 51°24.094 2°53.105 13.2 12.6 9 18.8
2011-02-15 06:59:08 51°24.111 2°53.11 12.5 12.8 10 19.1
2011-02-15 06:59:13 51°24.129 2°53.115 12.4 12.7 9 19.3
2011-02-15 06:59:18 51°24.146 2°53.12 12.3 12.7 11 18.9
2011-02-15 06:59:23 51°24.163 2°53.125 12.9 12.7 10 19.3
2011-02-15 06:59:28 51°24.181 2°53.13 12.9 12.7 12 19.2
2011-02-15 06:59:33 51°24.198 2°53.136 13.6 12.7 10 20.1
2011-02-15 06:59:38 51°24.215 2°53.141 13.3 12.7 11 20.1
2011-02-15 06:59:43 51°24.233 2°53.146 13.3 12.7 11 17.4
2011-02-15 06:59:48 51°24.25 2°53.151 13.2 12.6 11 16.4
2011-02-15 06:59:53 51°24.267 2°53.157 13.3 12.6 10 17.9
2011-02-15 06:59:58 51°24.284 2°53.163 13.2 12.7 12 18.6
2011-02-15 07:00:02 51°24.298 2°53.168 14 12.7 12 18.7
2011-02-15 07:00:08 51°24.318 2°53.174 14.2 12.6 12 19.4
2011-02-15 07:00:13 51°24.336 2°53.18 14 12.7 11 19.9
2011-02-15 07:00:18 51°24.353 2°53.185 13.9 12.7 11 19.6
2011-02-15 07:00:22 51°24.366 2°53.19 13.7 12.7 11 17.7
2011-02-15 07:00:28 51°24.387 2°53.196 13 12.6 11 18.3
2011-02-15 07:00:33 51°24.404 2°53.202 13.2 12.7 12 19.8
2011-02-15 07:00:38 51°24.422 2°53.207 13.6 12.7 11 18.7
2011-02-15 07:00:43 51°24.439 2°53.214 14.1 12.6 13 18.5
2011-02-15 07:00:48 51°24.456 2°53.219 14.6 12.6 12 19.5
2011-02-15 07:00:53 51°24.473 2°53.224 14 12.6 12 20.1
2011-02-15 07:00:58 51°24.49 2°53.23 14.1 12.6 11 20.3
2011-02-15 07:01:03 51°24.508 2°53.236 13.6 12.7 12 20.7
2011-02-15 07:01:08 51°24.525 2°53.241 13.5 12.8 10 20.9
2011-02-15 07:01:13 51°24.542 2°53.246 13.2 12.8 11 21
2011-02-15 07:01:18 51°24.56 2°53.251 13.3 12.7 10 21.3
2011-02-15 07:01:23 51°24.577 2°53.256 12.8 12.7 11 21.6
2011-02-15 07:01:28 51°24.594 2°53.261 12.6 12.8 10 21.4
2011-02-15 07:01:33 51°24.612 2°53.266 12.6 12.8 10 21.5
2011-02-15 07:01:38 51°24.629 2°53.271 12.6 12.7 10 21.3
2011-02-15 07:01:43 51°24.647 2°53.276 12.7 12.7 10 21.4
2011-02-15 07:01:48 51°24.664 2°53.28 12.2 12.7 10 21.1
2011-02-15 07:01:53 51°24.681 2°53.286 12.3 12.7 10 19.7
2011-02-15 07:01:58 51°24.699 2°53.291 12.4 12.7 10 18.3
2011-02-15 07:02:03 51°24.716 2°53.297 12.7 12.6 12 18.8
2011-02-15 07:02:08 51°24.733 2°53.302 13.7 12.7 12 19.3
2011-02-15 07:02:13 51°24.75 2°53.307 14 12.7 11 19.2
2011-02-15 07:02:18 51°24.767 2°53.313 14 12.8 12 18.4
2011-02-15 07:02:23 51°24.785 2°53.318 13.9 12.7 10 18.1
2011-02-15 07:02:28 51°24.802 2°53.325 13.6 12.7 12 18.8
2011-02-15 07:02:33 51°24.819 2°53.33 13.9 12.8 11 19.2
2011-02-15 07:02:38 51°24.836 2°53.336 14.4 12.6 13 19.8
2011-02-15 07:02:42 51°24.85 2°53.341 14.6 12.6 12 20.4
2011-02-15 07:02:48 51°24.87 2°53.349 15.1 12.7 14 20.6
2011-02-15 07:02:53 51°24.887 2°53.355 15.2 12.6 12 20.7
2011-02-15 07:02:58 51°24.905 2°53.361 14.9 12.6 13 20.4
2011-02-15 07:03:03 51°24.922 2°53.367 14.8 12.6 12 19.8
2011-02-15 07:03:08 51°24.939 2°53.372 14.7 12.6 12 18.2
2011-02-15 07:03:13 51°24.956 2°53.378 14.4 12.6 12 19.4
2011-02-15 07:03:18 51°24.973 2°53.384 14.2 12.6 12 20.2
2011-02-15 07:03:23 51°24.99 2°53.389 14 12.7 11 20.7
2011-02-15 07:03:28 51°25.008 2°53.395 13.9 12.7 12 21.3
2011-02-15 07:03:33 51°25.025 2°53.401 14.2 12.7 12 20.8
2011-02-15 07:03:38 51°25.042 2°53.406 14.1 12.7 11 21.5
2011-02-15 07:03:43 51°25.059 2°53.412 14 12.7 12 21.9
2011-02-15 07:03:48 51°25.077 2°53.417 13.7 12.7 11 22.5
2011-02-15 07:03:53 51°25.094 2°53.423 13.5 12.7 11 22.8
2011-02-15 07:03:58 51°25.111 2°53.427 12.9 12.7 10 22.7
2011-02-15 07:04:03 51°25.129 2°53.433 13 12.7 11 22.6
2011-02-15 07:04:08 51°25.146 2°53.438 12.9 12.8 10 22.5
2011-02-15 07:04:13 51°25.164 2°53.443 13.2 12.8 11 22.6
2011-02-15 07:04:18 51°25.181 2°53.448 13.4 12.8 11 22.9
2011-02-15 07:04:22 51°25.195 2°53.453 13.3 12.7 10 22.7
2011-02-15 07:04:28 51°25.216 2°53.459 13.3 12.8 10 23
2011-02-15 07:04:33 51°25.233 2°53.464 12.9 12.7 11 23.1
2011-02-15 07:04:38 51°25.25 2°53.469 12.8 12.7 10 23.1
2011-02-15 07:04:43 51°25.268 2°53.474 12 12.8 10 22.8
2011-02-15 07:04:48 51°25.286 2°53.478 11.7 12.7 9 22.5
2011-02-15 07:04:53 51°25.303 2°53.482 11.5 12.7 10 22.6
2011-02-15 07:04:58 51°25.32 2°53.487 11.7 12.7 9 22.5
2011-02-15 07:05:03 51°25.338 2°53.491 12 12.8 10 23
2011-02-15 07:05:08 51°25.355 2°53.496 12.3 12.7 10 22.7
2011-02-15 07:05:13 51°25.372 2°53.501 12.2 12.8 10 23.4
2011-02-15 07:05:18 51°25.39 2°53.506 12.8 12.8 11 23.5
2011-02-15 07:05:23 51°25.407 2°53.511 13.2 12.7 10 23.9
2011-02-15 07:05:28 51°25.424 2°53.516 13.1 12.6 11 24
2011-02-15 07:05:33 51°25.442 2°53.521 12.8 12.7 10 24.4
2011-02-15 07:05:38 51°25.459 2°53.527 12.6 12.7 11 24.5
2011-02-15 07:05:43 51°25.476 2°53.532 13 12.7 10 24.9
2011-02-15 07:05:48 51°25.494 2°53.537 13 12.8 11 25.1
2011-02-15 07:05:53 51°25.511 2°53.542 13.2 12.8 11 25.1
2011-02-15 07:05:58 51°25.528 2°53.547 13.9 12.8 12 25.4
2011-02-15 07:06:03 51°25.546 2°53.553 13.8 12.7 10 25.7
2011-02-15 07:06:08 51°25.563 2°53.558 13.8 12.9 12 26
2011-02-15 07:06:13 51°25.581 2°53.564 13.8 12.8 11 26.2
2011-02-15 07:06:18 51°25.598 2°53.569 13.7 12.6 12 26.3
2011-02-15 07:06:23 51°25.615 2°53.575 14.3 12.8 11 26.3
2011-02-15 07:06:28 51°25.632 2°53.58 13.9 12.6 11 26.4
2011-02-15 07:06:33 51°25.65 2°53.586 13.5 12.8 11 26.5
2011-02-15 07:06:38 51°25.667 2°53.591 13.7 12.8 11 26.9
2011-02-15 07:06:43 51°25.684 2°53.596 13.2 12.7 10 27.2
2011-02-15 07:06:48 51°25.701 2°53.601 13.8 12.7 11 27.2
2011-02-15 07:06:53 51°25.719 2°53.607 14 12.8 11 27.5
2011-02-15 07:06:58 51°25.736 2°53.613 14.4 12.8 13 27.4
2011-02-15 07:07:02 51°25.75 2°53.617 14.4 12.7 10 27.5
2011-02-15 07:07:08 51°25.77 2°53.624 14.3 12.6 12 27.9
2011-02-15 07:07:13 51°25.788 2°53.629 14.4 12.8 10 28.1
2011-02-15 07:07:18 51°25.806 2°53.635 13.7 12.8 11 28.5
2011-02-15 07:07:23 51°25.823 2°53.64 13.9 12.8 11 28.4
2011-02-15 07:07:27 51°25.837 2°53.644 13.9 12.9 10 28.6
2011-02-15 07:07:33 51°25.858 2°53.65 12.8 13 10 28.8
2011-02-15 07:07:38 51°25.876 2°53.655 12.8 12.8 10 28.9
2011-02-15 07:07:42 51°25.89 2°53.658 12.8 12.8 10 29
2011-02-15 07:07:48 51°25.911 2°53.664 12.6 12.9 9 29
2011-02-15 07:07:53 51°25.929 2°53.67 12.7 12.9 10 29.5
2011-02-15 07:07:58 51°25.946 2°53.674 12.6 12.9 10 29.9
2011-02-15 07:08:03 51°25.964 2°53.679 12.9 12.9 10 30
2011-02-15 07:08:08 51°25.981 2°53.682 12.2 12.7 8 30.5
2011-02-15 07:08:13 51°25.999 2°53.687 11.9 12.8 9 30.9
2011-02-15 07:08:18 51°26.017 2°53.691 11.7 12.9 8 31.1
2011-02-15 07:08:22 51°26.031 2°53.696 12.4 12.9 10 31.3
2011-02-15 07:08:28 51°26.052 2°53.7 12.7 12.7 9 31.4
2011-02-15 07:08:33 51°26.069 2°53.706 13 12.8 10 31.6
2011-02-15 07:08:38 51°26.087 2°53.711 13.3 12.9 10 31.9
2011-02-15 07:08:43 51°26.104 2°53.716 13.4 12.8 10 32
2011-02-15 07:08:48 51°26.122 2°53.721 13.3 12.8 10 32
2011-02-15 07:08:53 51°26.139 2°53.726 13.2 12.9 10 32.2
2011-02-15 07:08:58 51°26.157 2°53.731 13.4 12.8 10 32
2011-02-15 07:09:03 51°26.175 2°53.736 13.6 12.8 10 32.2
2011-02-15 07:09:08 51°26.192 2°53.742 13.3 12.8 10 32.1
2011-02-15 07:09:13 51°26.209 2°53.747 13.5 12.8 10 32.1
2011-02-15 07:09:18 51°26.227 2°53.752 13.7 12.9 11 32.5
2011-02-15 07:09:23 51°26.245 2°53.757 13.8 12.9 11 32.7
2011-02-15 07:09:27 51°26.259 2°53.762 14 12.9 11 32.8
2011-02-15 07:09:33 51°26.28 2°53.769 14.2 12.9 12 33
2011-02-15 07:09:38 51°26.298 2°53.774 14.8 13.1 11 33.2
2011-02-15 07:09:42 51°26.311 2°53.778 14.7 12.9 12 33.4
2011-02-15 07:09:48 51°26.333 2°53.785 14.7 12.9 11 33.6
2011-02-15 07:09:53 51°26.35 2°53.791 14.7 12.8 11 33.8
2011-02-15 07:09:58 51°26.367 2°53.796 14.4 12.8 10 33.5
2011-02-15 07:10:03 51°26.385 2°53.801 13.6 12.7 10 33.6
2011-02-15 07:10:08 51°26.403 2°53.806 13.5 12.7 10 33.6
2011-02-15 07:10:13 51°26.42 2°53.811 13.2 12.8 9 33.6
2011-02-15 07:10:18 51°26.438 2°53.816 13 12.9 10 33.5
2011-02-15 07:10:23 51°26.456 2°53.82 13 13 10 33.3
2011-02-15 07:10:28 51°26.473 2°53.825 13.1 12.9 9 33.3
2011-02-15 07:10:33 51°26.491 2°53.829 12.7 13 8 33.7
2011-02-15 07:10:38 51°26.508 2°53.834 12.4 12.9 9 33.9
2011-02-15 07:10:43 51°26.526 2°53.837 12 12.8 7 33.6
2011-02-15 07:10:48 51°26.544 2°53.842 11.4 12.8 9 33.6
2011-02-15 07:10:53 51°26.562 2°53.846 12.1 12.9 9 33.6
2011-02-15 07:10:58 51°26.579 2°53.852 13.2 12.9 10 33.5
2011-02-15 07:11:02 51°26.593 2°53.857 14.2 12.9 11 33.6
2011-02-15 07:11:08 51°26.614 2°53.863 14.2 12.9 11 33.7
2011-02-15 07:11:13 51°26.632 2°53.868 14.3 12.9 10 33.2
2011-02-15 07:11:18 51°26.649 2°53.874 14.2 12.7 11 33
2011-02-15 07:11:22 51°26.663 2°53.878 13.9 12.6 9 33
2011-02-15 07:11:28 51°26.685 2°53.884 13.3 12.8 11 32.7
2011-02-15 07:11:33 51°26.702 2°53.888 12.6 12.9 9 32.6
2011-02-15 07:11:38 51°26.72 2°53.894 12.5 13 11 32.6
2011-02-15 07:11:42 51°26.734 2°53.898 13.2 13 11 32.2
2011-02-15 07:11:48 51°26.755 2°53.904 13.2 13 11 31.5
2011-02-15 07:11:53 51°26.773 2°53.91 13.7 12.9 12 30.8
2011-02-15 07:11:58 51°26.79 2°53.916 14.4 12.7 12 29.7
2011-02-15 07:12:03 51°26.808 2°53.921 14.2 12.8 11 28.4
2011-02-15 07:12:08 51°26.825 2°53.927 13.6 12.8 11 27.6
2011-02-15 07:12:13 51°26.843 2°53.932 13.6 12.9 11 27.2
2011-02-15 07:12:18 51°26.86 2°53.938 13.6 12.9 12 27.3
2011-02-15 07:12:23 51°26.878 2°53.943 13.8 12.8 11 27
2011-02-15 07:12:28 51°26.895 2°53.949 13.9 12.7 11 26.3
2011-02-15 07:12:33 51°26.913 2°53.954 13.7 12.8 10 25.8
2011-02-15 07:12:38 51°26.93 2°53.96 14.1 12.8 13 25.4
2011-02-15 07:12:43 51°26.948 2°53.965 14.1 12.8 10 24.9
2011-02-15 07:12:48 51°26.965 2°53.971 13.9 12.8 11 24.5
2011-02-15 07:12:53 51°26.982 2°53.977 13.9 12.7 12 24.7
2011-02-15 07:12:58 51°26.999 2°53.983 14 12.7 12 24.6
2011-02-15 07:13:03 51°27.017 2°53.988 14.3 12.8 11 24.8
2011-02-15 07:13:08 51°27.035 2°53.994 14 12.8 13 25.2
2011-02-15 07:13:13 51°27.053 2°53.999 13.6 12.8 9 25.2
2011-02-15 07:13:18 51°27.07 2°54.005 13.2 12.8 12 25.2
2011-02-15 07:13:23 51°27.088 2°54.01 13.5 12.9 10 25.4
2011-02-15 07:13:28 51°27.105 2°54.016 13.2 12.9 12 25.1
2011-02-15 07:13:33 51°27.123 2°54.02 13.2 12.7 10 25.2
2011-02-15 07:13:38 51°27.14 2°54.026 13.2 12.7 11 25.4
2011-02-15 07:13:42 51°27.154 2°54.03 12.6 12.8 10 25.7
2011-02-15 07:13:48 51°27.175 2°54.036 12.3 12.8 11 25.6
2011-02-15 07:13:53 51°27.193 2°54.041 12.4 12.9 10 25.5
2011-02-15 07:13:58 51°27.21 2°54.046 12.4 12.9 10 25.6
2011-02-15 07:14:03 51°27.227 2°54.051 12.6 12.8 9 25.7
2011-02-15 07:14:08 51°27.245 2°54.056 12 12.9 10 25.8
2011-02-15 07:14:13 51°27.262 2°54.061 12.4 12.7 11 25.8
2011-02-15 07:14:18 51°27.28 2°54.066 12.8 12.7 11 25.9
2011-02-15 07:14:23 51°27.297 2°54.072 13.2 12.8 11 26
2011-02-15 07:14:28 51°27.314 2°54.077 13 12.6 11 25.8
2011-02-15 07:14:33 51°27.332 2°54.083 13.7 12.7 12 25.5
2011-02-15 07:14:38 51°27.349 2°54.089 14.3 12.9 12 25.5
2011-02-15 07:14:43 51°27.366 2°54.096 14.6 12.9 13 26.4
2011-02-15 07:14:48 51°27.384 2°54.102 15 12.8 13 27.1
2011-02-15 07:14:53 51°27.402 2°54.108 14.7 12.9 12 25.9
2011-02-15 07:14:58 51°27.419 2°54.114 14.3 13 11 26.6
2011-02-15 07:15:03 51°27.436 2°54.119 13.5 12.9 11 25.2
2011-02-15 07:15:08 51°27.454 2°54.125 13 13 11 26.7
2011-02-15 07:15:13 51°27.472 2°54.13 12.6 13 11 27.1
2011-02-15 07:15:18 51°27.489 2°54.136 12.7 12.9 11 26.6
2011-02-15 07:15:23 51°27.507 2°54.14 12.6 12.9 11 26.6
2011-02-15 07:15:28 51°27.525 2°54.145 12.1 13 9 26.9
2011-02-15 07:15:33 51°27.543 2°54.15 11.8 13 10 27
2011-02-15 07:15:38 51°27.56 2°54.155 11.6 13 10 27
2011-02-15 07:15:43 51°27.578 2°54.16 12.1 12.9 10 26.4
2011-02-15 07:15:48 51°27.595 2°54.165 12.4 12.8 11 26.6
2011-02-15 07:15:53 51°27.613 2°54.171 12.8 12.8 10 24.8
2011-02-15 07:15:58 51°27.631 2°54.176 12.4 12.8 10 25.4
2011-02-15 07:16:02 51°27.645 2°54.18 12.5 12.9 9 25.8
2011-02-15 07:16:08 51°27.666 2°54.184 10.7 12.9 7 26.2
2011-02-15 07:16:13 51°27.684 2°54.186 9 12.9 5 25.3
2011-02-15 07:16:18 51°27.702 2°54.188 7.2 12.9 3 24.9
2011-02-15 07:16:23 51°27.72 2°54.189 5.9 13 3 23.4
2011-02-15 07:16:28 51°27.737 2°54.19 4.7 12.8 1 23.9
2011-02-15 07:16:33 51°27.755 2°54.192 4.1 12.8 2 24.8
2011-02-15 07:16:38 51°27.774 2°54.192 3.9 12.9 2 24.3
2011-02-15 07:16:43 51°27.792 2°54.192 3.8 12.9 1 23.8
2011-02-15 07:16:48 51°27.809 2°54.194 3.8 12.9 3 22.6
2011-02-15 07:16:53 51°27.827 2°54.195 3.7 12.9 2 21.5
2011-02-15 07:16:58 51°27.845 2°54.196 3.8 12.9 3 23.1
2011-02-15 07:17:03 51°27.863 2°54.197 3.9 12.9 3 21.8
2011-02-15 07:17:08 51°27.881 2°54.199 5 13 4 22.6
2011-02-15 07:17:13 51°27.898 2°54.201 5.7 12.8 6 22.7
2011-02-15 07:17:18 51°27.916 2°54.204 6.8 12.9 6 20.8
2011-02-15 07:17:22 51°27.93 2°54.206 7.5 12.9 7 21.9
2011-02-15 07:17:28 51°27.952 2°54.21 8.4 12.8 6 22.5
2011-02-15 07:17:33 51°27.969 2°54.213 8.1 12.8 7 22.3